»·PEaware :: DAL1914 KSLC-KBOI

DAL1914 :: KSLC-KBOI

FLIGHT INFORMATION

Flight Status: Arrived
Operator:
Delta Air Lines
More flights by this operator :: More flights under this callsign
Pilot: Joe P. (13940)
Aircraft: BOEING 737-700
(B737)
More flights by this aircraft type
Origin: KSLC Salt Lake City Intl
United States
Destination: KBOI Boise Air Terminal/Gowen
United States
More flights between these airports :: More routes between these airports
Route: CGULL1 TWF BROPH SPUUD3
File this flight plan on PilotEdge
Remarks: KTWF -PBN / A1B1C1D1L1O1S1 NAV / RNVD1E2A1 DOF / 180813 REG / N389DA RVR / 200 PER / C
Altitude:
(Current/Filed)
300ft
Speed:
(Current/Filed)
470kts
Departed: 12-Aug-18 08:49 PM
Arrived: 12-Aug-18 09:41 PM
Distance/Time
Traveled:
252nm/0:52
Distance/Time
To Go:
Arrived

Flight Plot

Page will automatically refresh every two minutes.

Flight plan parsing failed; only flown route is shown


Map Options




Map Legend


Flown Route
Filed Route
Departure Airport
Arrival Airport
Navaid (VOR, NDB)
Fix

Horizontal Profiles

Position Reports

Time Latitude Longitude Heading Altitude Ground
Speed
12-Aug-18 19:54 40.789075 -111.985536 130 4235ft 0kts
12-Aug-18 19:55 40.789075 -111.985536 130 4235ft 0kts
12-Aug-18 19:56 40.789075 -111.985536 130 4235ft 0kts
12-Aug-18 19:57 40.789075 -111.985536 130 4235ft 0kts
12-Aug-18 19:58 40.789075 -111.985536 130 4235ft 0kts
12-Aug-18 19:59 40.789075 -111.985536 130 4235ft 0kts
12-Aug-18 20:00 40.789075 -111.985536 130 4235ft 0kts
12-Aug-18 20:01 40.789075 -111.985536 130 4235ft 0kts
12-Aug-18 20:02 40.789075 -111.985536 130 4235ft 0kts
12-Aug-18 20:03 40.789075 -111.985536 130 4235ft 0kts
12-Aug-18 20:04 40.789075 -111.985536 130 4235ft 0kts
12-Aug-18 20:05 40.789075 -111.985536 130 4235ft 0kts
12-Aug-18 20:06 40.789075 -111.985536 130 4235ft 0kts
12-Aug-18 20:07 40.789075 -111.985536 130 4235ft 0kts
12-Aug-18 20:08 40.789075 -111.985536 130 4235ft 0kts
12-Aug-18 20:09 40.789075 -111.985536 130 4235ft 0kts
12-Aug-18 20:10 40.789075 -111.985536 130 4235ft 0kts
12-Aug-18 20:11 40.789075 -111.985536 130 4235ft 0kts
12-Aug-18 20:12 40.789075 -111.985536 130 4235ft 0kts
12-Aug-18 20:13 40.789075 -111.985536 130 4235ft 0kts
12-Aug-18 20:14 40.789075 -111.985536 130 4235ft 0kts
12-Aug-18 20:15 40.789075 -111.985536 130 4235ft 0kts
12-Aug-18 20:16 40.789075 -111.985536 130 4235ft 0kts
12-Aug-18 20:17 40.789075 -111.985536 130 4235ft 0kts
12-Aug-18 20:18 40.789075 -111.985536 130 4235ft 0kts
12-Aug-18 20:19 40.789075 -111.985536 130 4235ft 0kts
12-Aug-18 20:20 40.789075 -111.985536 130 4235ft 0kts
12-Aug-18 20:21 40.789075 -111.985536 130 4235ft 0kts
12-Aug-18 20:22 40.789075 -111.985536 130 4235ft 0kts
12-Aug-18 20:23 40.789075 -111.985536 130 4235ft 0kts
12-Aug-18 20:24 40.789075 -111.985536 130 4235ft 0kts
12-Aug-18 20:25 40.789075 -111.985536 130 4235ft 0kts
12-Aug-18 20:26 40.789075 -111.985536 130 4235ft 0kts
12-Aug-18 20:27 40.789075 -111.985536 130 4235ft 0kts
12-Aug-18 20:28 40.789075 -111.985536 130 4235ft 0kts
12-Aug-18 20:29 40.789075 -111.985536 130 4235ft 0kts
12-Aug-18 20:30 40.789075 -111.985536 130 4235ft 0kts
12-Aug-18 20:31 40.789075 -111.985536 130 4235ft 0kts
12-Aug-18 20:32 40.789075 -111.985536 130 4235ft 0kts
12-Aug-18 20:33 40.789075 -111.985536 130 4235ft 0kts
12-Aug-18 20:34 40.789075 -111.985536 130 4235ft 0kts
12-Aug-18 20:35 40.789444 -111.986021 147 4235ft 2kts
12-Aug-18 20:36 40.789827 -111.985926 238 4235ft 0kts
12-Aug-18 20:37 40.789827 -111.985926 238 4235ft 0kts
12-Aug-18 20:38 40.789826 -111.985926 238 4235ft 0kts
12-Aug-18 20:39 40.789826 -111.985927 238 4235ft 0kts
12-Aug-18 20:40 40.789825 -111.985929 238 4235ft 0kts
12-Aug-18 20:41 40.789952 -111.986826 325 4235ft 9kts
12-Aug-18 20:42 40.791402 -111.988572 265 4235ft 3kts
12-Aug-18 20:43 40.791072 -111.993218 264 4235ft 19kts
12-Aug-18 20:44 40.794585 -111.994642 355 4235ft 18kts
12-Aug-18 20:45 40.799143 -111.995147 354 4235ft 20kts
12-Aug-18 20:46 40.805544 -111.995887 355 4235ft 24kts
12-Aug-18 20:47 40.807056 -111.997721 273 4235ft 0kts
12-Aug-18 20:48 40.807020 -111.998709 257 4235ft 5kts
12-Aug-18 20:49 40.805790 -111.999061 174 4235ft 39kts
12-Aug-18 20:50 40.765737 -111.994776 194 5588ft 197kts
12-Aug-18 20:51 40.769384 -112.057844 306 7559ft 250kts
12-Aug-18 20:52 40.819011 -112.130056 319 9860ft 272kts
12-Aug-18 20:53 40.877291 -112.198048 317 12866ft 290kts
12-Aug-18 20:54 40.945887 -112.278915 317 14079ft 369kts
12-Aug-18 20:55 41.024881 -112.372532 316 16592ft 389kts
12-Aug-18 20:56 41.112003 -112.461808 326 19094ft 405kts
12-Aug-18 20:57 41.207203 -112.546524 319 21335ft 417kts
12-Aug-18 20:58 41.297230 -112.646887 311 23314ft 428kts
12-Aug-18 20:59 41.378115 -112.766020 310 25102ft 438kts
12-Aug-18 21:00 41.459567 -112.889019 308 26703ft 447kts
12-Aug-18 21:01 41.541761 -113.015504 308 28148ft 456kts
12-Aug-18 21:02 41.624486 -113.143339 307 29988ft 453kts
12-Aug-18 21:03 41.707258 -113.270607 307 30085ft 451kts
12-Aug-18 21:04 41.789193 -113.397625 307 30087ft 451kts
12-Aug-18 21:05 41.871083 -113.525268 306 30089ft 451kts
12-Aug-18 21:06 41.952635 -113.652971 306 30089ft 451kts
12-Aug-18 21:07 42.034419 -113.781121 306 30091ft 450kts
12-Aug-18 21:08 42.115561 -113.909643 306 30095ft 450kts
12-Aug-18 21:09 42.196549 -114.038038 306 30098ft 450kts
12-Aug-18 21:10 42.277851 -114.166978 306 30101ft 450kts
12-Aug-18 21:11 42.359031 -114.295620 306 30106ft 449kts
12-Aug-18 21:12 42.439464 -114.424534 306 30109ft 448kts
12-Aug-18 21:13 42.519794 -114.552913 306 29766ft 439kts
12-Aug-18 21:14 42.597449 -114.676569 305 27707ft 424kts
12-Aug-18 21:15 42.672597 -114.797432 305 25618ft 412kts
12-Aug-18 21:16 42.746643 -114.913663 309 23575ft 402kts
12-Aug-18 21:17 42.823118 -115.021822 309 21569ft 391kts
12-Aug-18 21:18 42.896880 -115.128089 309 19603ft 380kts
12-Aug-18 21:19 42.968253 -115.231068 309 17776ft 368kts
12-Aug-18 21:20 43.037415 -115.331790 309 16001ft 357kts
12-Aug-18 21:21 43.103896 -115.429119 309 14306ft 338kts
12-Aug-18 21:22 43.165122 -115.518758 310 12763ft 306kts
12-Aug-18 21:23 43.222800 -115.603348 310 11312ft 299kts
12-Aug-18 21:24 43.278208 -115.684272 314 9944ft 281kts
12-Aug-18 21:25 43.335130 -115.757027 317 8880ft 279kts
12-Aug-18 21:26 43.381153 -115.835117 294 8202ft 238kts
12-Aug-18 21:27 43.404855 -115.909410 294 7959ft 202kts
12-Aug-18 21:28 43.427896 -115.981458 294 7791ft 211kts
12-Aug-18 21:29 43.451017 -116.053594 294 6995ft 199kts
12-Aug-18 21:30 43.473595 -116.123986 294 7005ft 203kts
12-Aug-18 21:31 43.496532 -116.195387 294 6998ft 203kts
12-Aug-18 21:32 43.519478 -116.266781 294 6961ft 204kts
12-Aug-18 21:33 43.542655 -116.338857 294 5845ft 204kts
12-Aug-18 21:34 43.565754 -116.409736 294 4979ft 194kts
12-Aug-18 21:35 43.588510 -116.478330 294 4534ft 199kts
12-Aug-18 21:36 43.617259 -116.537603 353 4425ft 194kts
12-Aug-18 21:37 43.639650 -116.479235 84 4530ft 195kts
12-Aug-18 21:38 43.627058 -116.409047 116 4494ft 191kts
12-Aug-18 21:39 43.605812 -116.347560 115 4493ft 160kts
12-Aug-18 21:40 43.586914 -116.292123 115 3657ft 157kts
12-Aug-18 21:41 43.568370 -116.237756 115 2883ft 152kts
12-Aug-18 21:42 43.560679 -116.214818 116 2879ft 26kts
12-Aug-18 21:43 43.560756 -116.212465 41 2879ft 1kts
12-Aug-18 21:44 43.562216 -116.211299 22 2879ft 2kts
12-Aug-18 21:45 43.564188 -116.215784 294 2879ft 15kts
12-Aug-18 21:46 43.567049 -116.217726 344 2879ft 8kts
12-Aug-18 21:47 43.567249 -116.218512 267 2879ft 0kts
12-Aug-18 21:48 43.567249 -116.218512 267 2879ft 0kts
12-Aug-18 21:49 43.567249 -116.218512 267 2879ft 0kts
12-Aug-18 21:50 43.567249 -116.218512 267 2879ft 0kts
12-Aug-18 21:51 43.567249 -116.218512 267 2879ft 0kts
12-Aug-18 21:52 43.567249 -116.218512 267 2879ft 0kts
12-Aug-18 21:53 43.567249 -116.218512 267 2879ft 0kts
12-Aug-18 21:54 43.567249 -116.218512 267 2879ft 0kts
12-Aug-18 21:55 43.567249 -116.218512 267 2879ft 0kts
12-Aug-18 21:56 43.567249 -116.218512 267 2879ft 0kts

Navigation Log

Ident Type
Flight plan parsing failed, navigation log unavailable